createdAt,value
2019-05-01T00:01:22.184Z,85.53
2019-05-01T00:04:03.081Z,85.40
2019-05-01T00:06:42.757Z,85.21
2019-05-01T00:09:16.095Z,84.81
2019-05-01T00:11:48.289Z,84.75
2019-05-01T00:14:20.421Z,84.65
2019-05-01T00:16:52.514Z,84.34
2019-05-01T00:19:24.472Z,84.44
2019-05-01T00:21:56.383Z,84.41
2019-05-01T00:24:28.374Z,84.36
2019-05-01T00:27:00.485Z,84.42
2019-05-01T00:29:32.441Z,84.32
2019-05-01T00:32:04.245Z,84.51
2019-05-01T00:34:36.193Z,84.60
2019-05-01T00:37:08.474Z,84.60
2019-05-01T00:39:40.282Z,84.60
2019-05-01T00:42:12.078Z,84.27
2019-05-01T00:44:43.985Z,84.31
2019-05-01T00:47:15.771Z,84.31
2019-05-01T00:49:47.790Z,84.47
2019-05-01T00:52:19.662Z,84.48
2019-05-01T00:54:53.371Z,84.33
2019-05-01T00:57:33.051Z,84.29
2019-05-01T01:00:09.078Z,84.43
2019-05-01T01:02:42.588Z,84.63
2019-05-01T01:05:14.543Z,84.91
2019-05-01T01:07:46.428Z,84.95
2019-05-01T01:10:18.471Z,85.23
2019-05-01T01:12:50.293Z,85.29
2019-05-01T01:15:22.088Z,85.42
2019-05-01T01:17:53.993Z,85.43
2019-05-01T01:20:25.893Z,85.24
2019-05-01T01:22:57.857Z,85.04
2019-05-01T01:25:29.663Z,84.94
2019-05-01T01:28:01.714Z,84.86
2019-05-01T01:30:33.945Z,84.77
2019-05-01T01:33:07.667Z,84.70
2019-05-01T01:35:39.640Z,84.34
2019-05-01T01:38:11.793Z,84.55
2019-05-01T01:40:44.305Z,84.54
2019-05-01T01:43:34.554Z,84.65
2019-05-01T01:46:07.451Z,84.86
2019-05-01T01:48:39.563Z,84.72
2019-05-01T01:51:11.540Z,84.73
2019-05-01T01:53:43.661Z,84.68
2019-05-01T01:56:17.022Z,84.43
2019-05-01T01:58:49.719Z,84.37
2019-05-01T02:01:38.293Z,84.37
2019-05-01T02:04:19.062Z,84.45
2019-05-01T02:06:51.739Z,84.65
2019-05-01T02:09:23.866Z,84.83
2019-05-01T02:11:56.032Z,85.00
2019-05-01T02:14:28.117Z,84.99
2019-05-01T02:16:59.977Z,85.11
2019-05-01T02:19:31.863Z,85.07
2019-05-01T02:22:03.795Z,85.22
2019-05-01T02:24:35.655Z,85.19
2019-05-01T02:27:11.834Z,85.25
2019-05-01T02:29:45.719Z,85.19
2019-05-01T02:32:18.919Z,85.21
2019-05-01T02:34:53.517Z,85.50
2019-05-01T02:37:27.883Z,85.51
2019-05-01T02:40:04.104Z,85.65
2019-05-01T02:42:38.391Z,85.73
2019-05-01T02:45:11.306Z,85.89
2019-05-01T02:47:45.376Z,85.94
2019-05-01T02:50:17.941Z,86.06
2019-05-01T02:52:50.259Z,86.39
2019-05-01T02:55:30.056Z,86.60
2019-05-01T02:58:02.557Z,87.13
2019-05-01T03:00:34.759Z,87.53
2019-05-01T03:03:06.781Z,87.70
2019-05-01T03:05:38.666Z,87.88
2019-05-01T03:08:11.324Z,87.98
2019-05-01T03:10:43.283Z,88.22
2019-05-01T03:13:15.142Z,88.32
2019-05-01T03:15:47.460Z,88.37
2019-05-01T03:18:35.935Z,88.46
2019-05-01T03:21:13.765Z,88.52
2019-05-01T03:24:05.133Z,88.77
2019-05-01T03:26:37.467Z,88.98
2019-05-01T03:29:10.134Z,89.03
2019-05-01T03:31:42.621Z,89.26
2019-05-01T03:34:14.902Z,89.39
2019-05-01T03:36:47.436Z,89.40
2019-05-01T03:39:19.765Z,89.47
2019-05-01T03:41:52.070Z,89.50
2019-05-01T03:44:24.679Z,89.37
2019-05-01T03:46:56.859Z,89.31
2019-05-01T03:49:29.251Z,89.29
2019-05-01T03:52:01.221Z,89.21
2019-05-01T03:54:33.838Z,89.16
2019-05-01T03:57:05.874Z,89.02
2019-05-01T03:59:38.618Z,88.92
2019-05-01T04:02:33.625Z,88.83
2019-05-01T04:05:03.206Z,88.67
2019-05-01T04:07:36.680Z,88.54
2019-05-01T04:10:09.978Z,88.46
2019-05-01T04:12:43.224Z,88.39
2019-05-01T04:15:15.133Z,88.24
2019-05-01T04:17:54.890Z,88.11
2019-05-01T04:20:27.356Z,87.92
2019-05-01T04:22:59.491Z,87.71
2019-05-01T04:25:31.607Z,87.42
2019-05-01T04:28:21.266Z,87.10
2019-05-01T04:31:11.987Z,86.98
2019-05-01T04:33:46.176Z,86.91
2019-05-01T04:36:23.195Z,86.90
2019-05-01T04:38:55.391Z,86.69
2019-05-01T04:41:27.765Z,86.59
2019-05-01T04:44:00.390Z,86.64
2019-05-01T04:46:32.814Z,86.75
2019-05-01T04:49:05.417Z,86.76
2019-05-01T04:51:37.758Z,86.93
2019-05-01T04:54:10.643Z,86.74
2019-05-01T04:56:43.697Z,86.73
2019-05-01T04:59:17.159Z,86.59
2019-05-01T05:02:03.490Z,86.72
2019-05-01T05:04:35.813Z,86.53
2019-05-01T05:07:08.206Z,86.60
2019-05-01T05:09:42.235Z,86.50
2019-05-01T05:12:25.695Z,86.52
2019-05-01T05:15:06.717Z,86.50
2019-05-01T05:17:38.644Z,86.46
2019-05-01T05:20:10.676Z,86.41
2019-05-01T05:22:42.789Z,86.31
2019-05-01T05:25:15.375Z,85.93
2019-05-01T05:27:49.195Z,85.79
2019-05-01T05:30:22.747Z,85.27
2019-05-01T05:32:57.201Z,84.87
2019-05-01T05:35:30.635Z,85.17
2019-05-01T05:38:10.773Z,84.76
2019-05-01T05:40:44.491Z,84.35
2019-05-01T05:43:17.463Z,84.41
2019-05-01T05:45:50.137Z,83.54
2019-05-01T05:48:22.215Z,83.12
2019-05-01T05:51:03.569Z,82.96
2019-05-01T05:53:40.487Z,82.85
2019-05-01T05:56:20.231Z,82.29
2019-05-01T05:58:57.017Z,82.01
2019-05-01T06:01:31.189Z,81.97
2019-05-01T06:04:21.529Z,81.69
2019-05-01T06:07:14.750Z,81.31
2019-05-01T06:09:49.943Z,81.18
2019-05-01T06:12:24.031Z,80.94
2019-05-01T06:15:06.390Z,80.76
2019-05-01T06:17:41.795Z,81.23
2019-05-01T06:20:20.794Z,80.91
2019-05-01T06:23:04.845Z,80.49
2019-05-01T06:25:44.508Z,80.40
2019-05-01T06:28:19.905Z,80.46
2019-05-01T06:30:54.145Z,79.89
2019-05-01T06:33:26.313Z,79.75
2019-05-01T06:35:58.413Z,79.15
2019-05-01T06:38:31.581Z,78.55
2019-05-01T06:41:05.157Z,77.86
2019-05-01T06:43:43.709Z,77.49
2019-05-01T06:46:16.611Z,77.02
2019-05-01T06:49:06.962Z,76.54
2019-05-01T06:51:43.381Z,76.12
2019-05-01T07:44:11.238Z,45.49
2019-05-01T07:47:04.796Z,58.76
2019-05-01T07:50:00.796Z,58.85
2019-05-01T07:52:37.153Z,59.09
2019-05-01T07:55:13.021Z,59.82
2019-05-01T07:57:46.544Z,59.08
2019-05-01T08:00:30.320Z,58.80
2019-05-01T08:03:07.296Z,58.56
2019-05-01T08:05:40.927Z,58.57
2019-05-01T08:10:25.092Z,56.72
2019-05-01T08:12:55.558Z,56.96
2019-05-01T08:15:32.322Z,57.10
2019-05-01T08:18:16.003Z,57.31
2019-05-01T08:20:50.477Z,58.41
2019-05-01T08:23:21.712Z,56.15
2019-05-01T08:25:53.552Z,55.05
2019-05-01T08:28:27.712Z,53.97
2019-05-01T08:31:02.455Z,50.26
2019-05-01T08:33:52.874Z,48.37
2019-05-01T08:36:24.804Z,40.22
2019-05-01T08:38:57.291Z,39.08
2019-05-01T08:41:31.896Z,46.64
2019-05-01T08:44:05.293Z,49.16
2019-05-01T08:46:37.362Z,49.29
2019-05-01T08:49:11.420Z,51.20
2019-05-01T08:51:43.036Z,45.63
2019-05-01T08:54:15.137Z,41.78
2019-05-01T08:56:47.226Z,40.90
2019-05-01T08:59:23.423Z,39.25
2019-05-01T09:02:08.489Z,38.60
2019-05-01T09:04:30.656Z,37.42
2019-05-01T09:07:02.337Z,35.51
2019-05-01T09:09:34.305Z,35.33
2019-05-01T09:12:06.955Z,36.23
2019-05-01T09:14:40.078Z,35.88
2019-05-01T09:17:12.314Z,35.79
2019-05-01T09:19:44.444Z,35.42
2019-05-01T09:22:16.851Z,37.12
2019-05-01T09:24:49.654Z,34.87
2019-05-01T09:27:29.386Z,33.11
2019-05-01T09:30:04.616Z,33.96
2019-05-01T09:32:36.698Z,35.13
2019-05-01T09:35:15.421Z,34.39
2019-05-01T09:37:42.700Z,33.22
2019-05-01T09:40:15.724Z,32.95
2019-05-01T09:42:47.640Z,30.78
2019-05-01T09:45:19.953Z,32.88
2019-05-01T09:47:52.065Z,34.76
2019-05-01T09:50:25.762Z,31.41
2019-05-01T09:53:01.042Z,29.75
2019-05-01T09:55:35.604Z,30.96
2019-05-01T09:58:07.974Z,29.85
2019-05-01T10:00:40.029Z,28.70
2019-05-01T10:03:13.140Z,28.77
2019-05-01T10:05:45.878Z,28.23
2019-05-01T10:08:17.656Z,29.46
2019-05-01T10:12:48.896Z,27.10
2019-05-01T10:15:19.989Z,25.77
2019-05-01T10:19:41.209Z,26.61
2019-05-01T10:22:12.290Z,23.45
2019-05-01T10:24:43.343Z,23.27
2019-05-01T10:27:17.218Z,25.32
2019-05-01T10:30:03.161Z,26.62
2019-05-01T10:32:36.147Z,26.88
2019-05-01T10:35:14.224Z,26.79
2019-05-01T10:37:45.943Z,28.25
2019-05-01T10:40:17.525Z,24.50
2019-05-01T10:42:48.633Z,26.28
2019-05-01T10:45:19.857Z,26.39
2019-05-01T10:47:51.034Z,24.46
2019-05-01T10:50:21.981Z,22.45
2019-05-01T10:52:53.496Z,21.80
2019-05-01T10:55:26.463Z,22.03
2019-05-01T10:57:57.575Z,22.05
2019-05-01T11:00:28.671Z,23.03
2019-05-01T11:03:00.100Z,21.65
2019-05-01T11:05:31.195Z,22.93
2019-05-01T11:08:02.317Z,21.46
2019-05-01T11:10:36.729Z,22.41
2019-05-01T11:13:08.037Z,22.83
2019-05-01T11:15:39.181Z,22.43
2019-05-01T11:18:10.287Z,23.85
2019-05-01T11:20:41.490Z,22.61
2019-05-01T11:23:12.707Z,23.76
2019-05-01T11:25:44.730Z,22.32
2019-05-01T11:28:16.072Z,20.98
2019-05-01T11:30:47.048Z,20.46
2019-05-01T11:33:35.963Z,21.29
2019-05-01T11:36:15.829Z,21.73
2019-05-01T11:38:51.536Z,20.26
2019-05-01T11:41:27.291Z,21.57
2019-05-01T11:43:58.422Z,20.94
2019-05-01T11:46:29.445Z,21.47
2019-05-01T11:49:00.558Z,21.96
2019-05-01T11:51:31.656Z,20.98
2019-05-01T11:54:02.736Z,20.43
2019-05-01T11:56:33.644Z,21.13
2019-05-01T11:59:04.903Z,21.87
2019-05-01T12:01:35.972Z,21.71
2019-05-01T12:04:07.191Z,20.69
2019-05-01T12:06:38.312Z,23.02
2019-05-01T12:09:09.570Z,21.94
2019-05-01T12:11:42.177Z,23.21
2019-05-01T12:14:13.234Z,24.45
2019-05-01T12:16:52.520Z,22.98
2019-05-01T12:19:30.836Z,22.45
2019-05-01T12:22:02.003Z,22.04
2019-05-01T12:24:33.125Z,22.42
2019-05-01T12:27:04.219Z,22.65
2019-05-01T12:29:35.218Z,23.71
2019-05-01T12:32:06.408Z,23.03
2019-05-01T12:34:37.439Z,22.83
2019-05-01T12:37:26.357Z,22.76
2019-05-01T12:39:57.346Z,23.10
2019-05-01T12:42:30.009Z,22.15
2019-05-01T12:45:01.492Z,23.82
2019-05-01T12:47:32.228Z,22.82
2019-05-01T12:50:03.840Z,22.69
2019-05-01T12:52:46.767Z,22.82
2019-05-01T12:55:31.502Z,23.69
2019-05-01T12:58:02.788Z,21.47
2019-05-01T13:00:56.697Z,23.46
2019-05-01T13:03:27.577Z,23.45
2019-05-01T13:05:59.330Z,21.21
2019-05-01T13:08:30.416Z,21.51
2019-05-01T13:11:01.761Z,21.97
2019-05-01T13:13:32.800Z,21.11
2019-05-01T13:16:03.997Z,21.46
2019-05-01T13:18:35.169Z,21.24
2019-05-01T13:21:06.248Z,22.98
2019-05-01T13:23:37.164Z,23.18
2019-05-01T13:26:10.187Z,22.15
2019-05-01T13:28:42.985Z,21.65
2019-05-01T13:31:15.826Z,21.74
2019-05-01T13:33:47.077Z,22.13
2019-05-01T13:36:18.165Z,21.60
2019-05-01T13:38:49.208Z,21.39
2019-05-01T13:41:20.292Z,21.17
2019-05-01T13:43:51.874Z,22.44
2019-05-01T13:46:23.110Z,22.48
2019-05-01T13:48:54.106Z,22.90
2019-05-01T13:51:25.270Z,23.59
2019-05-01T13:53:56.362Z,23.39
2019-05-01T13:56:27.562Z,23.95
2019-05-01T13:58:58.486Z,24.21
2019-05-01T14:01:29.547Z,22.98
2019-05-01T14:04:00.537Z,24.86
2019-05-01T14:06:33.043Z,25.11
2019-05-01T14:09:05.847Z,24.74
2019-05-01T14:11:36.833Z,26.08
2019-05-01T14:14:07.790Z,26.22
2019-05-01T14:16:38.712Z,26.03
2019-05-01T14:19:09.743Z,26.30
2019-05-01T14:21:42.320Z,24.88
2019-05-01T14:24:18.000Z,25.61
2019-05-01T14:26:48.924Z,25.93
2019-05-01T14:29:19.894Z,25.34
2019-05-01T14:31:50.892Z,25.31
2019-05-01T14:34:21.875Z,26.70
2019-05-01T14:36:52.932Z,26.03
2019-05-01T14:39:23.961Z,26.76
2019-05-01T14:41:55.332Z,25.80
2019-05-01T14:44:36.209Z,25.87
2019-05-01T14:46:59.359Z,24.59
2019-05-01T14:49:30.290Z,24.60
2019-05-01T14:52:01.312Z,24.68
2019-05-01T14:54:32.294Z,24.47
2019-05-01T14:57:03.590Z,26.64
2019-05-01T14:59:34.836Z,27.06
2019-05-01T15:02:06.039Z,26.96
2019-05-01T15:04:37.108Z,26.29
2019-05-01T15:07:11.139Z,25.55
2019-05-01T15:09:40.947Z,26.96
2019-05-01T15:12:11.852Z,26.26
2019-05-01T15:14:59.194Z,26.91
2019-05-01T15:17:31.758Z,26.45
2019-05-01T15:20:04.372Z,26.78
2019-05-01T15:22:35.534Z,25.30
2019-05-01T15:25:07.930Z,25.48
2019-05-01T15:27:38.975Z,25.91
2019-05-01T15:30:12.325Z,26.39
2019-05-01T15:32:43.350Z,27.50
2019-05-01T15:35:14.542Z,27.13
2019-05-01T15:37:55.981Z,26.77
2019-05-01T15:40:20.171Z,26.96
2019-05-01T15:42:55.201Z,26.60
2019-05-01T15:45:26.332Z,27.05
2019-05-01T15:47:57.346Z,26.57
2019-05-01T15:50:28.355Z,27.59
2019-05-01T15:52:59.285Z,28.75
2019-05-01T15:55:30.217Z,27.64
2019-05-01T15:58:01.207Z,28.77
2019-05-01T16:00:32.159Z,29.15
2019-05-01T16:03:03.311Z,29.15
2019-05-01T16:05:34.503Z,29.12
2019-05-01T16:08:09.952Z,29.19
2019-05-01T16:10:53.169Z,29.02
2019-05-01T16:13:24.409Z,28.39
2019-05-01T16:15:55.470Z,29.84
2019-05-01T16:18:26.447Z,30.20
2019-05-01T16:20:57.299Z,30.16
2019-05-01T16:23:28.352Z,30.53
2019-05-01T16:25:59.341Z,31.00
2019-05-01T16:28:30.221Z,31.45
2019-05-01T16:31:01.203Z,31.17
2019-05-01T16:33:33.126Z,31.93
2019-05-01T16:36:04.249Z,31.75
2019-05-01T16:38:47.393Z,32.20
2019-05-01T16:41:18.429Z,32.25
2019-05-01T16:43:49.433Z,32.18
2019-05-01T16:46:20.287Z,32.35
2019-05-01T16:48:51.411Z,32.78
2019-05-01T16:51:22.433Z,33.35
2019-05-01T16:53:53.555Z,33.02
2019-05-01T16:56:24.469Z,32.71
2019-05-01T16:58:55.452Z,32.88
2019-05-01T17:01:41.575Z,33.93
2019-05-01T17:04:29.391Z,34.06
2019-05-01T17:07:10.947Z,34.54
2019-05-01T17:09:41.687Z,34.17
2019-05-01T17:12:13.774Z,35.42
2019-05-01T17:14:46.445Z,35.91
2019-05-01T17:17:19.010Z,34.00
2019-05-01T17:19:49.938Z,34.46
2019-05-01T17:22:20.923Z,35.07
2019-05-01T17:24:52.651Z,35.05
2019-05-01T17:27:23.656Z,34.37
2019-05-01T17:29:54.640Z,34.01
2019-05-01T17:32:25.654Z,35.32
2019-05-01T17:34:56.657Z,34.92
2019-05-01T17:37:27.558Z,35.17
2019-05-01T17:39:58.606Z,35.60
2019-05-01T17:42:32.952Z,35.98
2019-05-01T17:45:02.492Z,36.41
2019-05-01T17:47:33.599Z,36.77
2019-05-01T17:50:05.295Z,36.62
2019-05-01T17:52:36.646Z,37.05
2019-05-01T17:55:08.994Z,37.34
2019-05-01T17:57:42.435Z,37.38
2019-05-01T18:00:28.355Z,37.48
2019-05-01T18:03:03.741Z,37.68
2019-05-01T18:05:34.532Z,38.03
2019-05-01T18:08:05.489Z,38.17
2019-05-01T18:10:38.610Z,38.56
2019-05-01T18:13:09.366Z,38.93
2019-05-01T18:15:40.363Z,39.34
2019-05-01T18:18:15.091Z,39.30
2019-05-01T18:20:44.467Z,41.38
2019-05-01T18:23:24.443Z,40.10
2019-05-01T18:26:08.809Z,40.53
2019-05-01T18:28:53.365Z,40.19
2019-05-01T18:31:27.891Z,40.25
2019-05-01T18:34:02.578Z,39.08
2019-05-01T18:36:34.018Z,40.32
2019-05-01T18:39:16.788Z,39.91
2019-05-01T18:41:55.708Z,40.85
2019-05-01T18:44:26.709Z,40.38
2019-05-01T18:46:57.910Z,40.73
2019-05-01T18:49:29.017Z,40.34
2019-05-01T18:52:00.000Z,39.92
2019-05-01T18:54:35.028Z,41.51
2019-05-01T18:57:04.076Z,41.54
2019-05-01T18:59:35.232Z,41.72
2019-05-01T19:02:06.426Z,41.54
2019-05-01T19:04:37.488Z,43.05
2019-05-01T19:07:08.813Z,41.45
2019-05-01T19:09:40.358Z,42.16
2019-05-01T19:12:13.123Z,42.97
2019-05-01T19:14:44.352Z,43.18
2019-05-01T19:17:16.184Z,43.05
2019-05-01T19:19:47.119Z,43.98
2019-05-01T19:22:18.413Z,44.41
2019-05-01T19:24:49.799Z,44.67
2019-05-01T19:27:24.254Z,45.32
2019-05-01T19:29:54.415Z,45.30
2019-05-01T19:32:26.084Z,45.28
2019-05-01T19:34:57.234Z,45.31
2019-05-01T19:37:30.990Z,45.79
2019-05-01T19:40:01.537Z,45.43
2019-05-01T19:42:32.712Z,44.84
2019-05-01T19:45:04.304Z,44.61
2019-05-01T19:47:35.382Z,44.96
2019-05-01T19:50:11.492Z,45.30
2019-05-01T19:52:44.039Z,44.89
2019-05-01T19:55:15.260Z,44.49
2019-05-01T19:57:46.313Z,44.85
2019-05-01T20:00:22.215Z,44.67
2019-05-01T20:02:54.236Z,44.86
2019-05-01T20:05:27.106Z,44.88
2019-05-01T20:07:58.627Z,44.57
2019-05-01T20:10:29.639Z,44.77
2019-05-01T20:13:00.761Z,44.36
2019-05-01T20:15:32.133Z,45.18
2019-05-01T20:18:03.112Z,45.95
2019-05-01T20:20:34.042Z,47.94
2019-05-01T20:23:05.413Z,48.41
2019-05-01T20:25:36.392Z,49.88
2019-05-01T20:28:07.485Z,49.89
2019-05-01T20:30:38.667Z,53.54
2019-05-01T20:33:09.618Z,57.38
2019-05-01T20:35:40.790Z,59.45
2019-05-01T20:38:13.456Z,60.72
2019-05-01T20:40:44.454Z,62.25
2019-05-01T20:43:15.441Z,64.03
2019-05-01T20:45:49.366Z,66.29
2019-05-01T20:48:23.624Z,67.97
2019-05-01T20:50:51.841Z,70.51
2019-05-01T20:53:22.850Z,69.70
2019-05-01T20:55:55.710Z,69.95
2019-05-01T20:58:26.844Z,70.65
2019-05-01T21:00:59.578Z,70.23
2019-05-01T21:03:31.205Z,71.27
2019-05-01T21:06:07.708Z,70.46
2019-05-01T21:08:45.196Z,69.89
2019-05-01T21:11:32.903Z,70.95
2019-05-01T21:14:16.055Z,70.43
2019-05-01T21:16:37.985Z,70.82
2019-05-01T21:19:09.531Z,70.92
2019-05-01T21:21:43.556Z,71.58
2019-05-01T21:24:14.732Z,71.85
2019-05-01T21:26:45.600Z,71.63
2019-05-01T21:29:16.604Z,72.82
2019-05-01T21:31:48.352Z,72.96
2019-05-01T21:34:19.403Z,74.54
2019-05-01T21:36:52.526Z,75.44
2019-05-01T21:39:26.405Z,74.94
2019-05-01T21:41:56.115Z,76.02
2019-05-01T21:44:27.043Z,75.82
2019-05-01T21:46:58.050Z,77.01
2019-05-01T21:49:29.220Z,77.30
2019-05-01T21:52:03.577Z,77.57
2019-05-01T21:54:34.968Z,77.62
2019-05-01T21:57:06.211Z,78.31
2019-05-01T21:59:39.808Z,77.98
2019-05-01T22:02:11.925Z,78.37
2019-05-01T22:04:43.027Z,77.61
2019-05-01T22:07:14.509Z,77.46
2019-05-01T22:09:50.345Z,77.72
2019-05-01T22:12:18.606Z,77.85
2019-05-01T22:14:54.033Z,78.15
2019-05-01T22:17:43.040Z,78.42
2019-05-01T22:20:15.908Z,78.49
2019-05-01T22:22:48.643Z,78.45
2019-05-01T22:25:24.093Z,77.71
2019-05-01T22:27:56.876Z,78.02
2019-05-01T22:30:42.413Z,77.82
2019-05-01T22:33:11.491Z,78.35
2019-05-01T22:35:53.844Z,78.32
2019-05-01T22:38:24.859Z,78.30
2019-05-01T22:41:06.181Z,78.70
2019-05-01T22:43:30.577Z,78.43
2019-05-01T22:46:03.348Z,77.88
2019-05-01T22:48:34.614Z,78.46
2019-05-01T22:51:07.755Z,78.59
2019-05-01T22:53:38.599Z,78.87
2019-05-01T22:56:10.404Z,78.93
2019-05-01T22:58:41.368Z,79.24
2019-05-01T23:01:13.384Z,79.63
2019-05-01T23:03:47.093Z,79.90
2019-05-01T23:06:18.240Z,79.95
2019-05-01T23:08:49.413Z,80.46
2019-05-01T23:11:21.166Z,80.18
2019-05-01T23:13:52.149Z,80.29
2019-05-01T23:16:28.827Z,80.14
2019-05-01T23:18:57.820Z,80.20
2019-05-01T23:21:28.983Z,80.03
2019-05-01T23:24:01.979Z,80.15
2019-05-01T23:26:32.907Z,79.62
2019-05-01T23:29:04.131Z,80.15
2019-05-01T23:31:35.306Z,79.26
2019-05-01T23:34:06.416Z,79.69
2019-05-01T23:36:37.705Z,79.70
2019-05-01T23:39:09.298Z,79.16
2019-05-01T23:41:47.079Z,79.10
2019-05-01T23:44:14.885Z,78.91
2019-05-01T23:46:46.039Z,79.13
2019-05-01T23:49:17.009Z,78.86
2019-05-01T23:51:48.186Z,78.47
2019-05-01T23:54:19.726Z,79.11
2019-05-01T23:56:50.880Z,77.71
2019-05-01T23:59:21.948Z,76.33
